createdAt,value
2022-11-12T00:04:14.038Z,82.65
2022-11-12T00:09:36.209Z,82.60
2022-11-12T00:14:58.512Z,82.73
2022-11-12T00:20:21.950Z,82.91
2022-11-12T00:25:44.599Z,82.91
2022-11-12T00:31:06.760Z,83.01
2022-11-12T00:36:30.085Z,83.11
2022-11-12T00:41:52.797Z,83.04
2022-11-12T00:47:16.291Z,82.86
2022-11-12T00:52:38.452Z,83.06
2022-11-12T00:58:00.668Z,83.41
2022-11-12T01:03:22.990Z,83.69
2022-11-12T01:08:48.581Z,83.59
2022-11-12T01:14:24.982Z,83.84
2022-11-12T01:19:47.658Z,84.19
2022-11-12T01:25:09.916Z,84.41
2022-11-12T01:30:32.626Z,84.55
2022-11-12T01:35:55.446Z,84.71
2022-11-12T01:41:34.702Z,84.87
2022-11-12T01:47:01.769Z,84.83
2022-11-12T01:52:48.453Z,84.85
2022-11-12T01:58:21.482Z,84.89
2022-11-12T02:03:44.324Z,84.82
2022-11-12T02:09:08.332Z,84.57
2022-11-12T02:14:31.456Z,84.50
2022-11-12T02:19:55.245Z,84.62
2022-11-12T02:25:22.755Z,84.93
2022-11-12T02:31:00.899Z,85.05
2022-11-12T02:36:23.199Z,85.12
2022-11-12T02:41:45.531Z,84.99
2022-11-12T02:47:07.692Z,84.51
2022-11-12T02:52:30.301Z,84.10
2022-11-12T02:57:53.141Z,83.95
2022-11-12T03:03:15.480Z,83.69
2022-11-12T03:08:37.841Z,83.30
2022-11-12T03:14:00.907Z,83.12
2022-11-12T03:19:23.083Z,82.99
2022-11-12T03:24:45.269Z,82.75
2022-11-12T03:30:07.960Z,82.39
2022-11-12T03:35:30.219Z,81.93
2022-11-12T03:40:52.961Z,81.68
2022-11-12T03:46:15.366Z,81.82
2022-11-12T03:51:38.111Z,82.04
2022-11-12T03:57:00.293Z,82.21
2022-11-12T04:02:23.137Z,82.42
2022-11-12T04:07:59.083Z,82.67
2022-11-12T04:13:31.335Z,82.75
2022-11-12T04:19:13.081Z,82.93
2022-11-12T04:24:57.726Z,82.96
2022-11-12T04:30:20.692Z,83.12
2022-11-12T04:35:44.013Z,83.42
2022-11-12T04:41:24.938Z,83.66
2022-11-12T04:46:47.101Z,83.71
2022-11-12T04:52:09.264Z,83.72
2022-11-12T04:57:31.681Z,83.78
2022-11-12T05:02:55.603Z,83.93
2022-11-12T05:08:21.265Z,84.11
2022-11-12T05:13:43.930Z,84.35
2022-11-12T05:19:06.184Z,84.70
2022-11-12T05:24:41.475Z,85.05
2022-11-12T05:29:52.558Z,85.34
2022-11-12T05:35:14.873Z,85.68
2022-11-12T05:40:37.032Z,86.04
2022-11-12T05:46:00.806Z,86.49
2022-11-12T05:51:23.328Z,86.94
2022-11-12T05:56:46.095Z,87.29
2022-11-12T06:02:08.308Z,87.62
2022-11-12T06:07:30.521Z,88.00
2022-11-12T06:12:52.672Z,88.31
2022-11-12T06:18:14.941Z,88.49
2022-11-12T06:23:37.123Z,88.59
2022-11-12T06:28:59.851Z,88.60
2022-11-12T06:34:22.010Z,88.37
2022-11-12T06:39:44.201Z,88.08
2022-11-12T06:45:06.460Z,87.87
2022-11-12T06:50:28.834Z,87.49
2022-11-12T06:55:50.993Z,87.03
2022-11-12T07:01:21.930Z,86.71
2022-11-12T07:06:46.079Z,86.38
2022-11-12T07:12:08.874Z,86.19
2022-11-12T07:17:31.076Z,85.81
2022-11-12T07:22:53.272Z,85.28
2022-11-12T07:28:15.868Z,84.84
2022-11-12T07:33:38.818Z,84.52
2022-11-12T07:39:03.706Z,84.23
2022-11-12T07:44:26.523Z,83.81
2022-11-12T07:49:48.770Z,83.57
2022-11-12T07:55:11.451Z,83.21
2022-11-12T08:00:34.139Z,82.98
2022-11-12T08:05:57.354Z,82.79
2022-11-12T08:11:21.927Z,82.65
2022-11-12T08:16:44.505Z,82.71
2022-11-12T08:22:07.224Z,82.67
2022-11-12T08:27:30.027Z,82.52
2022-11-12T08:32:52.194Z,82.66
2022-11-12T08:38:19.513Z,82.71
2022-11-12T08:43:41.921Z,82.54
2022-11-12T08:49:04.085Z,82.28
2022-11-12T08:54:26.264Z,82.14
2022-11-12T08:59:48.464Z,81.98
2022-11-12T09:05:10.832Z,81.62
2022-11-12T09:10:34.156Z,81.51
2022-11-12T09:15:57.811Z,81.28
2022-11-12T09:21:25.091Z,81.16
2022-11-12T09:26:49.078Z,80.88
2022-11-12T09:32:11.339Z,80.57
2022-11-12T09:37:34.509Z,80.24
2022-11-12T09:42:58.688Z,79.99
2022-11-12T09:48:29.428Z,79.89
2022-11-12T09:54:05.399Z,79.71
2022-11-12T09:59:30.960Z,79.54
2022-11-12T10:05:03.482Z,79.42
2022-11-12T10:10:49.296Z,80.10
2022-11-12T10:16:44.109Z,79.65
2022-11-12T10:22:14.112Z,79.43
2022-11-12T10:27:44.532Z,79.54
2022-11-12T10:33:07.407Z,79.66
2022-11-12T10:38:33.407Z,79.93
2022-11-12T10:43:59.144Z,80.03
2022-11-12T10:49:31.775Z,79.88
2022-11-12T10:54:57.057Z,80.01
2022-11-12T11:00:32.135Z,79.97
2022-11-12T11:06:12.888Z,79.84
2022-11-12T11:11:56.740Z,79.50
2022-11-12T11:17:23.574Z,79.74
2022-11-12T11:23:02.694Z,79.88
2022-11-12T11:28:48.132Z,80.04
2022-11-12T11:34:18.355Z,80.02
2022-11-12T11:39:54.079Z,79.99
2022-11-12T11:45:32.837Z,79.48
2022-11-12T11:51:02.439Z,78.97
2022-11-12T11:56:38.522Z,79.14
2022-11-12T12:02:33.508Z,78.46
2022-11-12T12:08:09.222Z,78.85
2022-11-12T12:13:51.323Z,78.50
2022-11-12T12:19:36.481Z,78.51
2022-11-12T12:25:06.721Z,78.34
2022-11-12T12:30:50.623Z,78.23
2022-11-12T12:36:43.983Z,78.30
2022-11-12T12:47:55.811Z,78.55
2022-11-12T12:53:37.255Z,78.20
2022-11-12T12:59:07.310Z,78.62
2022-11-12T13:04:23.260Z,78.91
2022-11-12T13:09:45.889Z,79.12
2022-11-12T13:15:27.392Z,79.36
2022-11-12T13:21:12.975Z,79.65
2022-11-12T13:26:59.551Z,79.93
2022-11-12T13:32:49.123Z,80.20
2022-11-12T13:38:23.847Z,80.46
2022-11-12T13:43:55.192Z,80.63
2022-11-12T13:49:25.968Z,80.95
2022-11-12T13:54:57.315Z,81.03
2022-11-12T14:00:39.170Z,81.14
2022-11-12T14:06:05.718Z,81.14
2022-11-12T14:11:56.831Z,81.26
2022-11-12T14:17:51.037Z,81.46
2022-11-12T14:23:24.896Z,81.48
2022-11-12T14:28:50.076Z,81.68
2022-11-12T14:34:37.672Z,81.82
2022-11-12T14:40:00.662Z,82.01
2022-11-12T14:45:34.142Z,82.03
2022-11-12T14:50:54.840Z,82.19
2022-11-12T14:56:21.244Z,82.47
2022-11-12T15:02:29.438Z,82.71
2022-11-12T15:08:04.361Z,82.96
2022-11-12T15:13:47.514Z,83.48
2022-11-12T15:19:30.969Z,83.73
2022-11-12T15:24:55.276Z,84.08
2022-11-12T15:30:32.578Z,84.32
2022-11-12T15:35:58.395Z,84.56
2022-11-12T15:41:30.084Z,84.87
2022-11-12T15:46:52.335Z,85.08
2022-11-12T15:52:14.529Z,85.07
2022-11-12T15:57:40.901Z,85.10
2022-11-12T16:03:18.751Z,85.34
2022-11-12T16:08:40.915Z,85.58
2022-11-12T16:14:03.564Z,85.90
2022-11-12T16:19:31.896Z,85.99
2022-11-12T16:24:55.205Z,86.05
2022-11-12T16:30:24.857Z,86.15
2022-11-12T16:35:48.607Z,86.27
2022-11-12T16:41:11.406Z,86.57
2022-11-12T16:46:41.170Z,86.70
2022-11-12T16:51:59.305Z,86.96
2022-11-12T16:57:23.511Z,87.31
2022-11-12T17:02:49.508Z,87.60
2022-11-12T17:08:11.982Z,87.88
2022-11-12T17:13:34.744Z,88.04
2022-11-12T17:18:58.695Z,88.37
2022-11-12T17:24:21.957Z,88.68
2022-11-12T17:29:44.204Z,88.80
2022-11-12T17:35:06.802Z,89.00
2022-11-12T17:40:29.337Z,89.30
2022-11-12T17:45:58.667Z,89.56
2022-11-12T17:51:27.583Z,89.89
2022-11-12T17:56:49.817Z,90.15
2022-11-12T18:02:12.605Z,90.38
2022-11-12T18:07:35.987Z,90.65
2022-11-12T18:12:59.348Z,90.89
2022-11-12T18:18:21.983Z,91.24
2022-11-12T18:23:45.055Z,91.68
2022-11-12T18:29:12.861Z,92.16
2022-11-12T18:34:35.050Z,92.53
2022-11-12T18:39:57.263Z,92.91
2022-11-12T18:45:20.300Z,93.39
2022-11-12T18:50:43.071Z,93.94
2022-11-12T18:56:08.550Z,94.55
2022-11-12T19:01:33.553Z,95.13
2022-11-12T19:06:56.111Z,95.85
2022-11-12T19:12:18.516Z,96.77
2022-11-12T19:17:41.217Z,97.99
2022-11-12T19:23:04.101Z,99.09
2022-11-12T19:28:27.498Z,100.00
2022-11-12T19:33:51.610Z,100.00
2022-11-12T19:39:15.073Z,100.00
2022-11-12T19:44:37.812Z,100.00
2022-11-12T19:50:00.408Z,100.00
2022-11-12T19:55:23.480Z,100.00
2022-11-12T20:00:46.912Z,100.00
2022-11-12T20:06:15.265Z,100.00
2022-11-12T20:11:37.442Z,100.00
2022-11-12T20:16:59.712Z,100.00
2022-11-12T20:22:22.091Z,100.00
2022-11-12T20:27:44.769Z,100.00
2022-11-12T20:33:07.013Z,100.00
2022-11-12T20:38:30.746Z,100.00
2022-11-12T20:43:53.210Z,100.00
2022-11-12T20:49:15.865Z,100.00
2022-11-12T20:54:38.195Z,100.00
2022-11-12T21:00:00.389Z,100.00
2022-11-12T21:05:22.812Z,100.00
2022-11-12T21:10:45.049Z,100.00
2022-11-12T21:16:07.499Z,100.00
2022-11-12T21:21:33.941Z,100.00
2022-11-12T21:26:56.399Z,100.00
2022-11-12T21:32:18.676Z,100.00
2022-11-12T21:37:41.523Z,100.00
2022-11-12T21:43:03.776Z,100.00
2022-11-12T21:48:26.556Z,100.00
2022-11-12T21:53:49.085Z,100.00
2022-11-12T21:59:12.401Z,100.00
2022-11-12T22:04:34.587Z,100.00
2022-11-12T22:09:57.265Z,100.00
2022-11-12T22:15:24.157Z,100.00
2022-11-12T22:20:43.543Z,100.00
2022-11-12T22:26:07.312Z,100.00
2022-11-12T22:31:33.810Z,100.00
2022-11-12T22:36:56.152Z,100.00
2022-11-12T22:42:18.342Z,100.00
2022-11-12T22:47:40.556Z,100.00
2022-11-12T22:53:03.869Z,100.00
2022-11-12T22:58:26.406Z,100.00
2022-11-12T23:03:50.097Z,100.00
2022-11-12T23:09:13.020Z,100.00
2022-11-12T23:14:35.286Z,100.00
2022-11-12T23:19:58.048Z,100.00
2022-11-12T23:25:21.191Z,100.00
2022-11-12T23:30:43.655Z,100.00
2022-11-12T23:36:12.790Z,100.00
2022-11-12T23:41:38.523Z,100.00
2022-11-12T23:47:00.747Z,100.00
2022-11-12T23:52:22.989Z,100.00
2022-11-12T23:57:45.177Z,100.00
